sensor_id;sensor_type;location;lat;lon;timestamp;temperature;humidity
29571;DHT22;16814;52.118;11.436;2022-08-25T00:01:58;19.10;99.90
29571;DHT22;16814;52.118;11.436;2022-08-25T00:04:26;19.20;99.90
29571;DHT22;16814;52.118;11.436;2022-08-25T00:06:57;19.20;99.90
29571;DHT22;16814;52.118;11.436;2022-08-25T00:09:26;19.10;99.90
29571;DHT22;16814;52.118;11.436;2022-08-25T00:11:55;19.20;99.90
29571;DHT22;16814;52.118;11.436;2022-08-25T00:14:25;19.20;99.90
29571;DHT22;16814;52.118;11.436;2022-08-25T00:16:52;19.10;99.90
29571;DHT22;16814;52.118;11.436;2022-08-25T00:19:26;19.10;99.90
29571;DHT22;16814;52.118;11.436;2022-08-25T00:21:53;19.20;99.90
29571;DHT22;16814;52.118;11.436;2022-08-25T00:24:21;19.30;99.90
29571;DHT22;16814;52.118;11.436;2022-08-25T00:26:51;19.20;99.90
29571;DHT22;16814;52.118;11.436;2022-08-25T00:29:19;19.20;99.90
29571;DHT22;16814;52.118;11.436;2022-08-25T00:31:45;19.10;99.90
29571;DHT22;16814;52.118;11.436;2022-08-25T00:34:15;19.00;99.90
29571;DHT22;16814;52.118;11.436;2022-08-25T00:36:42;19.10;99.90
29571;DHT22;16814;52.118;11.436;2022-08-25T00:39:09;19.00;99.90
29571;DHT22;16814;52.118;11.436;2022-08-25T00:41:37;19.00;99.90
29571;DHT22;16814;52.118;11.436;2022-08-25T00:44:06;18.90;99.90
29571;DHT22;16814;52.118;11.436;2022-08-25T00:46:46;18.90;99.90
29571;DHT22;16814;52.118;11.436;2022-08-25T00:49:32;18.90;99.90
29571;DHT22;16814;52.118;11.436;2022-08-25T00:52:26;18.90;99.90
29571;DHT22;16814;52.118;11.436;2022-08-25T00:57:43;18.80;99.90
29571;DHT22;16814;52.118;11.436;2022-08-25T01:00:28;18.80;99.90
29571;DHT22;16814;52.118;11.436;2022-08-25T01:02:54;18.70;99.90
29571;DHT22;16814;52.118;11.436;2022-08-25T01:05:25;18.80;99.90
29571;DHT22;16814;52.118;11.436;2022-08-25T01:07:55;18.80;99.90
29571;DHT22;16814;52.118;11.436;2022-08-25T01:10:25;18.60;99.90
29571;DHT22;16814;52.118;11.436;2022-08-25T01:12:51;18.60;99.90
29571;DHT22;16814;52.118;11.436;2022-08-25T01:15:22;18.60;99.90
29571;DHT22;16814;52.118;11.436;2022-08-25T01:17:52;18.60;99.90
29571;DHT22;16814;52.118;11.436;2022-08-25T01:20:20;18.60;99.90
29571;DHT22;16814;52.118;11.436;2022-08-25T01:22:49;18.70;99.90
29571;DHT22;16814;52.118;11.436;2022-08-25T01:28:21;18.50;99.90
29571;DHT22;16814;52.118;11.436;2022-08-25T01:30:48;18.50;99.90
29571;DHT22;16814;52.118;11.436;2022-08-25T01:33:17;18.50;99.90
29571;DHT22;16814;52.118;11.436;2022-08-25T01:35:43;18.50;99.90
29571;DHT22;16814;52.118;11.436;2022-08-25T01:38:10;18.40;99.90
29571;DHT22;16814;52.118;11.436;2022-08-25T01:40:38;18.50;99.90
29571;DHT22;16814;52.118;11.436;2022-08-25T01:43:26;18.40;99.90
29571;DHT22;16814;52.118;11.436;2022-08-25T01:45:56;18.40;99.90
29571;DHT22;16814;52.118;11.436;2022-08-25T01:48:25;18.50;99.90
29571;DHT22;16814;52.118;11.436;2022-08-25T01:50:52;18.40;99.90
29571;DHT22;16814;52.118;11.436;2022-08-25T01:53:28;18.40;99.90
29571;DHT22;16814;52.118;11.436;2022-08-25T01:55:56;18.30;99.90
29571;DHT22;16814;52.118;11.436;2022-08-25T01:58:34;18.20;99.90
29571;DHT22;16814;52.118;11.436;2022-08-25T02:01:06;18.10;99.90
29571;DHT22;16814;52.118;11.436;2022-08-25T02:03:39;18.20;99.90
29571;DHT22;16814;52.118;11.436;2022-08-25T02:06:11;18.20;99.90
29571;DHT22;16814;52.118;11.436;2022-08-25T02:08:39;18.20;99.90
29571;DHT22;16814;52.118;11.436;2022-08-25T02:11:10;18.20;99.90
29571;DHT22;16814;52.118;11.436;2022-08-25T02:13:38;18.20;99.90
29571;DHT22;16814;52.118;11.436;2022-08-25T02:16:06;18.20;99.90
29571;DHT22;16814;52.118;11.436;2022-08-25T02:18:35;18.20;99.90
29571;DHT22;16814;52.118;11.436;2022-08-25T02:21:02;18.20;99.90
29571;DHT22;16814;52.118;11.436;2022-08-25T02:23:29;18.20;99.90
29571;DHT22;16814;52.118;11.436;2022-08-25T02:25:55;18.20;99.90
29571;DHT22;16814;52.118;11.436;2022-08-25T02:28:23;18.30;99.90
29571;DHT22;16814;52.118;11.436;2022-08-25T02:30:50;18.30;99.90
29571;DHT22;16814;52.118;11.436;2022-08-25T02:33:18;18.30;99.90
29571;DHT22;16814;52.118;11.436;2022-08-25T02:35:44;18.30;99.90
29571;DHT22;16814;52.118;11.436;2022-08-25T02:38:10;18.20;99.90
29571;DHT22;16814;52.118;11.436;2022-08-25T02:40:38;18.20;99.90
29571;DHT22;16814;52.118;11.436;2022-08-25T02:43:06;18.10;99.90
29571;DHT22;16814;52.118;11.436;2022-08-25T02:45:33;18.00;99.90
29571;DHT22;16814;52.118;11.436;2022-08-25T02:47:59;18.10;99.90
29571;DHT22;16814;52.118;11.436;2022-08-25T02:50:26;18.00;99.90
29571;DHT22;16814;52.118;11.436;2022-08-25T02:52:53;18.00;99.90
29571;DHT22;16814;52.118;11.436;2022-08-25T02:55:21;18.00;99.90
29571;DHT22;16814;52.118;11.436;2022-08-25T02:57:49;18.00;99.90
29571;DHT22;16814;52.118;11.436;2022-08-25T03:00:17;18.00;99.90
29571;DHT22;16814;52.118;11.436;2022-08-25T03:02:45;17.90;99.90
29571;DHT22;16814;52.118;11.436;2022-08-25T03:05:12;17.90;99.90
29571;DHT22;16814;52.118;11.436;2022-08-25T03:07:39;17.90;99.90
29571;DHT22;16814;52.118;11.436;2022-08-25T03:10:14;17.90;99.90
29571;DHT22;16814;52.118;11.436;2022-08-25T03:12:57;17.80;99.90
29571;DHT22;16814;52.118;11.436;2022-08-25T03:15:24;17.80;99.90
29571;DHT22;16814;52.118;11.436;2022-08-25T03:17:54;17.80;99.90
29571;DHT22;16814;52.118;11.436;2022-08-25T03:20:23;17.80;99.90
29571;DHT22;16814;52.118;11.436;2022-08-25T03:22:51;17.90;99.90
29571;DHT22;16814;52.118;11.436;2022-08-25T03:25:19;17.90;99.90
29571;DHT22;16814;52.118;11.436;2022-08-25T03:28:06;18.00;99.90
29571;DHT22;16814;52.118;11.436;2022-08-25T03:30:33;18.10;99.90
29571;DHT22;16814;52.118;11.436;2022-08-25T03:33:01;18.00;99.90
29571;DHT22;16814;52.118;11.436;2022-08-25T03:35:28;18.10;99.90
29571;DHT22;16814;52.118;11.436;2022-08-25T03:37:57;18.10;99.90
29571;DHT22;16814;52.118;11.436;2022-08-25T03:40:26;18.10;99.90
29571;DHT22;16814;52.118;11.436;2022-08-25T03:42:52;18.00;99.90
29571;DHT22;16814;52.118;11.436;2022-08-25T03:45:25;18.00;99.90
29571;DHT22;16814;52.118;11.436;2022-08-25T03:47:52;18.00;99.90
29571;DHT22;16814;52.118;11.436;2022-08-25T03:50:22;18.00;99.90
29571;DHT22;16814;52.118;11.436;2022-08-25T03:52:55;18.00;99.90
29571;DHT22;16814;52.118;11.436;2022-08-25T03:55:23;17.90;99.90
29571;DHT22;16814;52.118;11.436;2022-08-25T03:57:53;18.00;99.90
29571;DHT22;16814;52.118;11.436;2022-08-25T04:00:21;17.90;99.90
29571;DHT22;16814;52.118;11.436;2022-08-25T04:02:49;17.90;99.90
29571;DHT22;16814;52.118;11.436;2022-08-25T04:05:16;17.90;99.90
29571;DHT22;16814;52.118;11.436;2022-08-25T04:07:42;17.90;99.90
29571;DHT22;16814;52.118;11.436;2022-08-25T04:10:08;17.90;99.90
29571;DHT22;16814;52.118;11.436;2022-08-25T04:12:37;17.80;99.90
29571;DHT22;16814;52.118;11.436;2022-08-25T04:15:06;17.90;99.90
29571;DHT22;16814;52.118;11.436;2022-08-25T04:17:37;17.90;99.90
29571;DHT22;16814;52.118;11.436;2022-08-25T04:20:07;17.80;99.90
29571;DHT22;16814;52.118;11.436;2022-08-25T04:22:36;17.80;99.90
29571;DHT22;16814;52.118;11.436;2022-08-25T04:25:05;17.80;99.90
29571;DHT22;16814;52.118;11.436;2022-08-25T04:27:34;17.80;99.90
29571;DHT22;16814;52.118;11.436;2022-08-25T04:30:00;18.00;99.90
29571;DHT22;16814;52.118;11.436;2022-08-25T04:32:27;18.10;99.90
29571;DHT22;16814;52.118;11.436;2022-08-25T04:34:53;18.10;99.90
29571;DHT22;16814;52.118;11.436;2022-08-25T04:37:22;18.20;99.90
29571;DHT22;16814;52.118;11.436;2022-08-25T04:39:48;18.20;99.90
29571;DHT22;16814;52.118;11.436;2022-08-25T04:42:16;18.10;99.90
29571;DHT22;16814;52.118;11.436;2022-08-25T04:44:42;18.10;99.90
29571;DHT22;16814;52.118;11.436;2022-08-25T04:47:09;18.10;99.90
29571;DHT22;16814;52.118;11.436;2022-08-25T04:49:36;18.00;99.90
29571;DHT22;16814;52.118;11.436;2022-08-25T04:52:02;18.00;99.90
29571;DHT22;16814;52.118;11.436;2022-08-25T04:54:28;18.00;99.90
29571;DHT22;16814;52.118;11.436;2022-08-25T04:56:56;18.00;99.90
29571;DHT22;16814;52.118;11.436;2022-08-25T04:59:22;17.90;99.90
29571;DHT22;16814;52.118;11.436;2022-08-25T05:01:48;17.90;99.90
29571;DHT22;16814;52.118;11.436;2022-08-25T05:04:15;17.90;99.90
29571;DHT22;16814;52.118;11.436;2022-08-25T05:06:44;17.90;99.90
29571;DHT22;16814;52.118;11.436;2022-08-25T05:09:12;17.90;99.90
29571;DHT22;16814;52.118;11.436;2022-08-25T05:11:40;17.90;99.90
29571;DHT22;16814;52.118;11.436;2022-08-25T05:14:05;18.00;99.90
29571;DHT22;16814;52.118;11.436;2022-08-25T05:16:37;18.00;99.90
29571;DHT22;16814;52.118;11.436;2022-08-25T05:19:05;18.10;99.90
29571;DHT22;16814;52.118;11.436;2022-08-25T05:21:31;18.10;99.90
29571;DHT22;16814;52.118;11.436;2022-08-25T05:23:59;18.10;99.90
29571;DHT22;16814;52.118;11.436;2022-08-25T05:26:29;18.10;99.90
29571;DHT22;16814;52.118;11.436;2022-08-25T05:28:59;18.20;99.90
29571;DHT22;16814;52.118;11.436;2022-08-25T05:31:26;18.20;99.90
29571;DHT22;16814;52.118;11.436;2022-08-25T05:33:55;18.20;99.90
29571;DHT22;16814;52.118;11.436;2022-08-25T05:36:25;18.20;99.90
29571;DHT22;16814;52.118;11.436;2022-08-25T05:38:54;18.30;99.90
29571;DHT22;16814;52.118;11.436;2022-08-25T05:41:24;18.30;99.90
29571;DHT22;16814;52.118;11.436;2022-08-25T05:43:52;18.20;99.90
29571;DHT22;16814;52.118;11.436;2022-08-25T05:46:18;18.20;99.90
29571;DHT22;16814;52.118;11.436;2022-08-25T05:48:46;18.40;99.90
29571;DHT22;16814;52.118;11.436;2022-08-25T05:51:19;18.50;99.90
29571;DHT22;16814;52.118;11.436;2022-08-25T05:53:49;18.50;99.90
29571;DHT22;16814;52.118;11.436;2022-08-25T05:56:15;18.30;99.90
29571;DHT22;16814;52.118;11.436;2022-08-25T05:58:44;18.30;99.90
29571;DHT22;16814;52.118;11.436;2022-08-25T06:01:20;18.30;99.90
29571;DHT22;16814;52.118;11.436;2022-08-25T06:04:08;18.30;99.90
29571;DHT22;16814;52.118;11.436;2022-08-25T06:06:35;18.30;99.90
29571;DHT22;16814;52.118;11.436;2022-08-25T06:09:02;18.30;99.90
29571;DHT22;16814;52.118;11.436;2022-08-25T06:11:31;18.30;99.90
29571;DHT22;16814;52.118;11.436;2022-08-25T06:13:57;18.20;99.90
29571;DHT22;16814;52.118;11.436;2022-08-25T06:16:24;18.20;99.90
29571;DHT22;16814;52.118;11.436;2022-08-25T06:18:51;18.30;99.90
29571;DHT22;16814;52.118;11.436;2022-08-25T06:21:17;18.30;99.90
29571;DHT22;16814;52.118;11.436;2022-08-25T06:23:45;18.40;99.90
29571;DHT22;16814;52.118;11.436;2022-08-25T06:26:11;18.50;99.90
29571;DHT22;16814;52.118;11.436;2022-08-25T06:28:38;18.60;99.90
29571;DHT22;16814;52.118;11.436;2022-08-25T06:31:05;18.70;99.90
29571;DHT22;16814;52.118;11.436;2022-08-25T06:33:32;18.50;99.90
29571;DHT22;16814;52.118;11.436;2022-08-25T06:36:00;18.60;99.90
29571;DHT22;16814;52.118;11.436;2022-08-25T06:38:28;18.50;99.90
29571;DHT22;16814;52.118;11.436;2022-08-25T06:40:55;18.60;99.90
29571;DHT22;16814;52.118;11.436;2022-08-25T06:43:24;18.50;99.90
29571;DHT22;16814;52.118;11.436;2022-08-25T06:45:54;18.50;99.90
29571;DHT22;16814;52.118;11.436;2022-08-25T06:48:22;18.50;99.90
29571;DHT22;16814;52.118;11.436;2022-08-25T06:50:50;18.70;99.90
29571;DHT22;16814;52.118;11.436;2022-08-25T06:53:18;18.90;99.90
29571;DHT22;16814;52.118;11.436;2022-08-25T06:55:44;19.10;99.90
29571;DHT22;16814;52.118;11.436;2022-08-25T06:58:11;19.30;99.90
29571;DHT22;16814;52.118;11.436;2022-08-25T07:00:38;19.60;99.90
29571;DHT22;16814;52.118;11.436;2022-08-25T07:03:06;19.80;99.90
29571;DHT22;16814;52.118;11.436;2022-08-25T07:05:33;19.80;99.90
29571;DHT22;16814;52.118;11.436;2022-08-25T07:08:00;19.80;99.90
29571;DHT22;16814;52.118;11.436;2022-08-25T07:10:26;20.10;99.90
29571;DHT22;16814;52.118;11.436;2022-08-25T07:12:52;20.40;99.90
29571;DHT22;16814;52.118;11.436;2022-08-25T07:15:19;20.90;99.90
29571;DHT22;16814;52.118;11.436;2022-08-25T07:17:48;21.20;99.90
29571;DHT22;16814;52.118;11.436;2022-08-25T07:20:16;21.20;99.90
29571;DHT22;16814;52.118;11.436;2022-08-25T07:22:43;21.60;99.90
29571;DHT22;16814;52.118;11.436;2022-08-25T07:25:12;21.90;99.90
29571;DHT22;16814;52.118;11.436;2022-08-25T07:27:40;22.00;99.90
29571;DHT22;16814;52.118;11.436;2022-08-25T07:30:08;22.20;99.90
29571;DHT22;16814;52.118;11.436;2022-08-25T07:32:34;22.40;99.90
29571;DHT22;16814;52.118;11.436;2022-08-25T07:35:00;22.60;99.90
29571;DHT22;16814;52.118;11.436;2022-08-25T07:37:52;22.90;99.90
29571;DHT22;16814;52.118;11.436;2022-08-25T07:40:33;23.10;99.90
29571;DHT22;16814;52.118;11.436;2022-08-25T07:43:03;23.00;99.90
29571;DHT22;16814;52.118;11.436;2022-08-25T07:45:36;23.00;99.90
29571;DHT22;16814;52.118;11.436;2022-08-25T07:48:08;23.10;99.90
29571;DHT22;16814;52.118;11.436;2022-08-25T07:50:39;23.50;99.90
29571;DHT22;16814;52.118;11.436;2022-08-25T07:53:11;23.90;99.90
29571;DHT22;16814;52.118;11.436;2022-08-25T07:55:39;24.40;99.90
29571;DHT22;16814;52.118;11.436;2022-08-25T07:58:08;24.40;99.90
29571;DHT22;16814;52.118;11.436;2022-08-25T08:00:38;24.50;99.90
29571;DHT22;16814;52.118;11.436;2022-08-25T08:03:08;24.50;99.90
29571;DHT22;16814;52.118;11.436;2022-08-25T08:05:35;24.50;99.90
29571;DHT22;16814;52.118;11.436;2022-08-25T08:08:05;24.50;99.90
29571;DHT22;16814;52.118;11.436;2022-08-25T08:10:32;24.80;99.90
29571;DHT22;16814;52.118;11.436;2022-08-25T08:12:59;25.10;99.90
29571;DHT22;16814;52.118;11.436;2022-08-25T08:15:25;24.90;99.90
29571;DHT22;16814;52.118;11.436;2022-08-25T08:17:50;24.80;99.90
29571;DHT22;16814;52.118;11.436;2022-08-25T08:20:16;25.10;99.90
29571;DHT22;16814;52.118;11.436;2022-08-25T08:22:42;25.20;99.90
29571;DHT22;16814;52.118;11.436;2022-08-25T08:25:10;25.20;99.90
29571;DHT22;16814;52.118;11.436;2022-08-25T08:27:36;25.50;99.90
29571;DHT22;16814;52.118;11.436;2022-08-25T08:30:04;25.80;99.90
29571;DHT22;16814;52.118;11.436;2022-08-25T08:32:30;25.90;99.90
29571;DHT22;16814;52.118;11.436;2022-08-25T08:34:55;25.90;99.90
29571;DHT22;16814;52.118;11.436;2022-08-25T08:37:21;25.80;99.90
29571;DHT22;16814;52.118;11.436;2022-08-25T08:39:47;25.70;99.90
29571;DHT22;16814;52.118;11.436;2022-08-25T08:42:25;25.80;99.90
29571;DHT22;16814;52.118;11.436;2022-08-25T08:45:09;25.90;99.90
29571;DHT22;16814;52.118;11.436;2022-08-25T08:48:07;25.90;99.90
29571;DHT22;16814;52.118;11.436;2022-08-25T08:51:14;26.40;99.90
29571;DHT22;16814;52.118;11.436;2022-08-25T08:53:44;26.90;99.90
29571;DHT22;16814;52.118;11.436;2022-08-25T08:56:15;27.30;99.90
29571;DHT22;16814;52.118;11.436;2022-08-25T08:58:48;27.50;99.90
29571;DHT22;16814;52.118;11.436;2022-08-25T09:01:32;27.60;99.90
29571;DHT22;16814;52.118;11.436;2022-08-25T09:04:02;27.60;99.90
29571;DHT22;16814;52.118;11.436;2022-08-25T09:06:38;27.80;99.90
29571;DHT22;16814;52.118;11.436;2022-08-25T09:09:08;27.80;99.90
29571;DHT22;16814;52.118;11.436;2022-08-25T09:17:19;27.40;99.90
29571;DHT22;16814;52.118;11.436;2022-08-25T09:25:59;27.60;99.90
29571;DHT22;16814;52.118;11.436;2022-08-25T09:28:48;27.90;99.90
29571;DHT22;16814;52.118;11.436;2022-08-25T09:31:26;28.00;99.90
29571;DHT22;16814;52.118;11.436;2022-08-25T09:33:57;28.20;99.90
29571;DHT22;16814;52.118;11.436;2022-08-25T09:36:24;27.70;99.90
29571;DHT22;16814;52.118;11.436;2022-08-25T09:38:51;27.90;99.90
29571;DHT22;16814;52.118;11.436;2022-08-25T09:43:58;27.90;99.90
29571;DHT22;16814;52.118;11.436;2022-08-25T09:46:26;27.80;99.90
29571;DHT22;16814;52.118;11.436;2022-08-25T09:48:57;27.40;99.90
29571;DHT22;16814;52.118;11.436;2022-08-25T09:51:30;27.40;99.90
29571;DHT22;16814;52.118;11.436;2022-08-25T09:56:55;27.40;99.90
29571;DHT22;16814;52.118;11.436;2022-08-25T09:59:25;27.50;99.90
29571;DHT22;16814;52.118;11.436;2022-08-25T10:01:53;27.30;99.90
29571;DHT22;16814;52.118;11.436;2022-08-25T10:04:26;27.00;99.90
29571;DHT22;16814;52.118;11.436;2022-08-25T10:06:53;27.20;99.90
29571;DHT22;16814;52.118;11.436;2022-08-25T10:09:50;27.60;99.90
29571;DHT22;16814;52.118;11.436;2022-08-25T10:12:22;28.10;99.90
29571;DHT22;16814;52.118;11.436;2022-08-25T10:14:51;28.40;99.90
29571;DHT22;16814;52.118;11.436;2022-08-25T10:17:24;28.30;99.90
29571;DHT22;16814;52.118;11.436;2022-08-25T10:19:55;28.30;99.90
29571;DHT22;16814;52.118;11.436;2022-08-25T10:22:38;28.10;99.90
29571;DHT22;16814;52.118;11.436;2022-08-25T10:25:07;28.50;99.90
29571;DHT22;16814;52.118;11.436;2022-08-25T10:28:04;28.60;99.90
29571;DHT22;16814;52.118;11.436;2022-08-25T10:30:50;28.30;99.90
29571;DHT22;16814;52.118;11.436;2022-08-25T10:33:34;28.00;99.90
29571;DHT22;16814;52.118;11.436;2022-08-25T10:38:53;27.60;99.90
29571;DHT22;16814;52.118;11.436;2022-08-25T10:41:51;27.50;99.90
29571;DHT22;16814;52.118;11.436;2022-08-25T10:53:25;27.60;99.90
29571;DHT22;16814;52.118;11.436;2022-08-25T10:56:02;27.40;99.90
29571;DHT22;16814;52.118;11.436;2022-08-25T11:04:02;27.80;99.90
29571;DHT22;16814;52.118;11.436;2022-08-25T11:06:39;28.20;99.90
29571;DHT22;16814;52.118;11.436;2022-08-25T11:09:09;28.90;99.90
29571;DHT22;16814;52.118;11.436;2022-08-25T11:11:37;29.10;99.90
29571;DHT22;16814;52.118;11.436;2022-08-25T11:16:39;28.80;99.90
29571;DHT22;16814;52.118;11.436;2022-08-25T11:22:06;28.00;99.90
29571;DHT22;16814;52.118;11.436;2022-08-25T11:24:49;27.90;99.90
29571;DHT22;16814;52.118;11.436;2022-08-25T11:27:21;28.20;99.90
29571;DHT22;16814;52.118;11.436;2022-08-25T11:30:04;28.40;99.90
29571;DHT22;16814;52.118;11.436;2022-08-25T11:32:31;27.80;99.90
29571;DHT22;16814;52.118;11.436;2022-08-25T11:35:05;27.50;99.90
29571;DHT22;16814;52.118;11.436;2022-08-25T11:37:33;27.50;99.90
29571;DHT22;16814;52.118;11.436;2022-08-25T11:40:32;27.70;99.90
29571;DHT22;16814;52.118;11.436;2022-08-25T11:46:12;27.90;99.90
29571;DHT22;16814;52.118;11.436;2022-08-25T11:54:23;27.90;99.90
29571;DHT22;16814;52.118;11.436;2022-08-25T11:56:57;28.00;99.90
29571;DHT22;16814;52.118;11.436;2022-08-25T12:02:36;27.80;99.90
29571;DHT22;16814;52.118;11.436;2022-08-25T12:10:16;27.10;99.90
29571;DHT22;16814;52.118;11.436;2022-08-25T12:18:11;27.50;99.90
29571;DHT22;16814;52.118;11.436;2022-08-25T12:23:43;27.60;99.90
29571;DHT22;16814;52.118;11.436;2022-08-25T12:29:22;27.70;99.90
29571;DHT22;16814;52.118;11.436;2022-08-25T12:38:08;27.40;99.90
29571;DHT22;16814;52.118;11.436;2022-08-25T12:43:23;27.20;99.90
29571;DHT22;16814;52.118;11.436;2022-08-25T12:45:52;27.40;99.90
29571;DHT22;16814;52.118;11.436;2022-08-25T12:51:02;27.60;99.90
29571;DHT22;16814;52.118;11.436;2022-08-25T12:53:38;27.60;99.90
29571;DHT22;16814;52.118;11.436;2022-08-25T12:56:20;27.70;99.90
29571;DHT22;16814;52.118;11.436;2022-08-25T12:59:00;27.70;99.90
29571;DHT22;16814;52.118;11.436;2022-08-25T13:04:46;27.60;99.90
29571;DHT22;16814;52.118;11.436;2022-08-25T13:10:48;27.30;99.90
29571;DHT22;16814;52.118;11.436;2022-08-25T13:13:48;27.30;99.90
29571;DHT22;16814;52.118;11.436;2022-08-25T13:16:19;27.20;99.90
29571;DHT22;16814;52.118;11.436;2022-08-25T13:18:45;27.10;99.90
29571;DHT22;16814;52.118;11.436;2022-08-25T13:23:47;27.00;99.90
29571;DHT22;16814;52.118;11.436;2022-08-25T13:26:25;27.30;99.90
29571;DHT22;16814;52.118;11.436;2022-08-25T13:28:58;27.40;99.90
29571;DHT22;16814;52.118;11.436;2022-08-25T13:31:25;27.50;99.90
29571;DHT22;16814;52.118;11.436;2022-08-25T13:34:00;27.60;99.90
29571;DHT22;16814;52.118;11.436;2022-08-25T13:36:29;27.70;99.90
29571;DHT22;16814;52.118;11.436;2022-08-25T13:41:47;27.80;99.90
29571;DHT22;16814;52.118;11.436;2022-08-25T13:44:14;27.80;99.90
29571;DHT22;16814;52.118;11.436;2022-08-25T13:46:40;27.70;99.90
29571;DHT22;16814;52.118;11.436;2022-08-25T13:49:08;27.60;99.90
29571;DHT22;16814;52.118;11.436;2022-08-25T13:51:37;27.50;99.90
29571;DHT22;16814;52.118;11.436;2022-08-25T13:54:05;27.70;99.90
29571;DHT22;16814;52.118;11.436;2022-08-25T13:56:38;27.80;99.90
29571;DHT22;16814;52.118;11.436;2022-08-25T13:59:19;27.90;99.90
29571;DHT22;16814;52.118;11.436;2022-08-25T14:01:47;27.90;99.90
29571;DHT22;16814;52.118;11.436;2022-08-25T14:06:48;27.90;99.90
29571;DHT22;16814;52.118;11.436;2022-08-25T14:09:16;27.90;99.90
29571;DHT22;16814;52.118;11.436;2022-08-25T14:11:54;27.80;99.90
29571;DHT22;16814;52.118;11.436;2022-08-25T14:17:08;27.80;99.90
29571;DHT22;16814;52.118;11.436;2022-08-25T14:19:42;27.70;99.90
29571;DHT22;16814;52.118;11.436;2022-08-25T14:22:09;27.80;99.90
29571;DHT22;16814;52.118;11.436;2022-08-25T14:24:36;27.90;99.90
29571;DHT22;16814;52.118;11.436;2022-08-25T14:27:05;27.90;99.90
29571;DHT22;16814;52.118;11.436;2022-08-25T14:29:32;27.90;99.90
29571;DHT22;16814;52.118;11.436;2022-08-25T14:31:58;27.80;99.90
29571;DHT22;16814;52.118;11.436;2022-08-25T14:34:29;27.80;99.90
29571;DHT22;16814;52.118;11.436;2022-08-25T14:36:58;27.80;99.90
29571;DHT22;16814;52.118;11.436;2022-08-25T14:39:25;27.70;99.90
29571;DHT22;16814;52.118;11.436;2022-08-25T14:41:51;27.70;99.90
29571;DHT22;16814;52.118;11.436;2022-08-25T14:44:16;27.60;99.90
29571;DHT22;16814;52.118;11.436;2022-08-25T14:46:47;27.80;99.90
29571;DHT22;16814;52.118;11.436;2022-08-25T14:49:24;27.70;99.90
29571;DHT22;16814;52.118;11.436;2022-08-25T14:51:54;27.70;99.90
29571;DHT22;16814;52.118;11.436;2022-08-25T14:54:24;27.70;99.90
29571;DHT22;16814;52.118;11.436;2022-08-25T14:56:51;28.10;99.90
29571;DHT22;16814;52.118;11.436;2022-08-25T14:59:16;27.50;99.90
29571;DHT22;16814;52.118;11.436;2022-08-25T15:01:43;27.50;99.90
29571;DHT22;16814;52.118;11.436;2022-08-25T15:04:14;27.80;99.90
29571;DHT22;16814;52.118;11.436;2022-08-25T15:06:42;27.40;99.90
29571;DHT22;16814;52.118;11.436;2022-08-25T15:09:11;27.40;99.90
29571;DHT22;16814;52.118;11.436;2022-08-25T15:11:43;27.30;99.90
29571;DHT22;16814;52.118;11.436;2022-08-25T15:14:11;27.40;99.90
29571;DHT22;16814;52.118;11.436;2022-08-25T15:16:43;27.40;99.80
29571;DHT22;16814;52.118;11.436;2022-08-25T15:19:11;27.40;99.80
29571;DHT22;16814;52.118;11.436;2022-08-25T15:21:39;27.40;99.90
29571;DHT22;16814;52.118;11.436;2022-08-25T15:24:06;27.50;99.90
29571;DHT22;16814;52.118;11.436;2022-08-25T15:26:44;27.40;99.90
29571;DHT22;16814;52.118;11.436;2022-08-25T15:29:10;27.30;99.90
29571;DHT22;16814;52.118;11.436;2022-08-25T15:31:36;27.30;99.90
29571;DHT22;16814;52.118;11.436;2022-08-25T15:34:06;27.60;99.90
29571;DHT22;16814;52.118;11.436;2022-08-25T15:36:36;27.20;99.90
29571;DHT22;16814;52.118;11.436;2022-08-25T15:39:03;27.30;99.90
29571;DHT22;16814;52.118;11.436;2022-08-25T15:41:29;27.20;99.90
29571;DHT22;16814;52.118;11.436;2022-08-25T15:43:55;27.30;99.90
29571;DHT22;16814;52.118;11.436;2022-08-25T15:46:25;27.40;99.90
29571;DHT22;16814;52.118;11.436;2022-08-25T15:48:51;27.90;99.90
29571;DHT22;16814;52.118;11.436;2022-08-25T15:51:17;27.40;99.90
29571;DHT22;16814;52.118;11.436;2022-08-25T15:53:44;27.40;99.90
29571;DHT22;16814;52.118;11.436;2022-08-25T15:56:09;27.30;99.90
29571;DHT22;16814;52.118;11.436;2022-08-25T15:58:38;27.80;99.90
29571;DHT22;16814;52.118;11.436;2022-08-25T16:01:04;27.30;99.90
29571;DHT22;16814;52.118;11.436;2022-08-25T16:03:30;27.70;99.90
29571;DHT22;16814;52.118;11.436;2022-08-25T16:05:56;27.10;99.90
29571;DHT22;16814;52.118;11.436;2022-08-25T16:08:21;27.20;99.90
29571;DHT22;16814;52.118;11.436;2022-08-25T16:10:47;27.30;99.90
29571;DHT22;16814;52.118;11.436;2022-08-25T16:13:14;27.20;99.90
29571;DHT22;16814;52.118;11.436;2022-08-25T16:15:46;27.30;99.90
29571;DHT22;16814;52.118;11.436;2022-08-25T16:18:12;27.30;99.90
29571;DHT22;16814;52.118;11.436;2022-08-25T16:20:42;27.30;99.90
29571;DHT22;16814;52.118;11.436;2022-08-25T16:23:08;27.10;99.90
29571;DHT22;16814;52.118;11.436;2022-08-25T16:25:38;27.10;99.90
29571;DHT22;16814;52.118;11.436;2022-08-25T16:28:04;27.00;99.90
29571;DHT22;16814;52.118;11.436;2022-08-25T16:30:30;26.90;99.90
29571;DHT22;16814;52.118;11.436;2022-08-25T16:32:55;26.80;99.90
29571;DHT22;16814;52.118;11.436;2022-08-25T16:35:21;26.70;99.90
29571;DHT22;16814;52.118;11.436;2022-08-25T16:37:46;26.80;99.90
29571;DHT22;16814;52.118;11.436;2022-08-25T16:40:13;26.80;99.90
29571;DHT22;16814;52.118;11.436;2022-08-25T16:42:39;26.70;99.90
29571;DHT22;16814;52.118;11.436;2022-08-25T16:45:05;26.70;99.90
29571;DHT22;16814;52.118;11.436;2022-08-25T16:47:35;26.70;99.90
29571;DHT22;16814;52.118;11.436;2022-08-25T16:50:03;26.60;99.90
29571;DHT22;16814;52.118;11.436;2022-08-25T16:52:29;26.60;99.90
29571;DHT22;16814;52.118;11.436;2022-08-25T16:55:14;26.70;99.90
29571;DHT22;16814;52.118;11.436;2022-08-25T16:57:49;26.60;99.90
29571;DHT22;16814;52.118;11.436;2022-08-25T17:00:24;26.70;99.90
29571;DHT22;16814;52.118;11.436;2022-08-25T17:02:56;26.70;99.90
29571;DHT22;16814;52.118;11.436;2022-08-25T17:05:24;26.60;99.90
29571;DHT22;16814;52.118;11.436;2022-08-25T17:07:50;26.60;99.90
29571;DHT22;16814;52.118;11.436;2022-08-25T17:10:36;26.60;99.90
29571;DHT22;16814;52.118;11.436;2022-08-25T17:13:02;26.40;99.90
29571;DHT22;16814;52.118;11.436;2022-08-25T17:15:28;26.50;99.90
29571;DHT22;16814;52.118;11.436;2022-08-25T17:17:53;26.50;99.90